createdAt,value
2018-03-15T00:00:08.722Z,48.24
2018-03-15T00:00:36.254Z,48.26
2018-03-15T00:00:58.308Z,48.25
2018-03-15T00:01:21.131Z,48.25
2018-03-15T00:01:49.530Z,48.25
2018-03-15T00:02:11.593Z,48.25
2018-03-15T00:02:33.652Z,48.25
2018-03-15T00:02:55.721Z,48.25
2018-03-15T00:03:23.269Z,48.25
2018-03-15T00:03:45.313Z,48.25
2018-03-15T00:04:08.134Z,48.25
2018-03-15T00:04:35.367Z,48.25
2018-03-15T00:04:57.507Z,48.25
2018-03-15T00:05:20.334Z,48.24
2018-03-15T00:05:43.152Z,48.24
2018-03-15T00:06:05.210Z,48.24
2018-03-15T00:06:27.284Z,48.24
2018-03-15T00:06:49.344Z,48.24
2018-03-15T00:07:11.499Z,48.25
2018-03-15T00:07:33.580Z,48.24
2018-03-15T00:07:55.633Z,48.24
2018-03-15T00:08:17.838Z,48.23
2018-03-15T00:08:39.884Z,48.24
2018-03-15T00:09:01.929Z,48.24
2018-03-15T00:09:24.766Z,48.24
2018-03-15T00:09:47.589Z,48.24
2018-03-15T00:10:09.636Z,48.24
2018-03-15T00:10:31.713Z,48.24
2018-03-15T00:10:53.780Z,48.24
2018-03-15T00:11:15.848Z,48.23
2018-03-15T00:11:37.892Z,48.24
2018-03-15T00:12:00.714Z,48.24
2018-03-15T00:12:22.796Z,48.24
2018-03-15T00:12:44.838Z,48.24
2018-03-15T00:13:06.865Z,48.24
2018-03-15T00:13:28.918Z,48.24
2018-03-15T00:13:50.989Z,48.24
2018-03-15T00:14:13.054Z,48.25
2018-03-15T00:14:35.134Z,48.25
2018-03-15T00:14:57.201Z,48.25
2018-03-15T00:15:19.255Z,48.25
2018-03-15T00:15:41.312Z,48.24
2018-03-15T00:16:03.372Z,48.24
2018-03-15T00:16:25.447Z,48.23
2018-03-15T00:16:47.499Z,48.23
2018-03-15T00:17:09.553Z,48.23
2018-03-15T00:17:31.732Z,48.23
2018-03-15T00:17:53.809Z,48.22
2018-03-15T00:18:16.634Z,48.23
2018-03-15T00:18:39.451Z,48.23
2018-03-15T00:19:01.632Z,48.23
2018-03-15T00:19:23.695Z,48.23
2018-03-15T00:19:45.737Z,48.23
2018-03-15T00:20:08.617Z,48.22
2018-03-15T00:20:30.674Z,48.23
2018-03-15T00:20:53.501Z,48.23
2018-03-15T00:21:15.542Z,48.23
2018-03-15T00:21:38.370Z,48.22
2018-03-15T00:22:01.181Z,48.23
2018-03-15T00:22:23.246Z,48.23
2018-03-15T00:22:45.337Z,48.23
2018-03-15T00:23:08.220Z,48.23
2018-03-15T00:23:30.280Z,48.23
2018-03-15T00:23:52.334Z,48.23
2018-03-15T00:24:14.396Z,48.23
2018-03-15T00:24:36.447Z,48.23
2018-03-15T00:24:59.277Z,48.22
2018-03-15T00:25:22.102Z,48.22
2018-03-15T00:25:44.187Z,48.22
2018-03-15T00:26:06.241Z,48.22
2018-03-15T00:26:29.077Z,48.22
2018-03-15T00:26:51.911Z,48.22
2018-03-15T00:27:14.742Z,48.22
2018-03-15T00:27:36.814Z,48.22
2018-03-15T00:27:58.893Z,48.22
2018-03-15T00:28:21.719Z,48.22
2018-03-15T00:28:44.530Z,48.22
2018-03-15T00:29:06.586Z,48.21
2018-03-15T00:29:29.394Z,48.23
2018-03-15T00:29:51.452Z,48.24
2018-03-15T00:30:13.516Z,48.24
2018-03-15T00:30:35.573Z,48.23
2018-03-15T00:30:58.395Z,48.24
2018-03-15T00:31:21.229Z,48.24
2018-03-15T00:31:44.192Z,48.24
2018-03-15T00:32:06.265Z,48.24
2018-03-15T00:32:28.322Z,48.24
2018-03-15T00:32:50.404Z,48.23
2018-03-15T00:33:12.584Z,48.23
2018-03-15T00:33:34.640Z,48.24
2018-03-15T00:33:56.712Z,48.24
2018-03-15T00:34:18.776Z,48.23
2018-03-15T00:34:40.839Z,48.24
2018-03-15T00:35:02.908Z,48.23
2018-03-15T00:35:25.489Z,48.24
2018-03-15T00:35:47.634Z,48.24
2018-03-15T00:36:09.729Z,48.24
2018-03-15T00:36:31.798Z,48.24
2018-03-15T00:36:53.844Z,48.23
2018-03-15T00:37:15.893Z,48.23
2018-03-15T00:37:37.946Z,48.23
2018-03-15T00:38:00.009Z,48.24
2018-03-15T00:38:22.147Z,48.24
2018-03-15T00:38:44.216Z,48.24
2018-03-15T00:39:07.053Z,48.23
2018-03-15T00:39:29.894Z,48.24
2018-03-15T00:39:52.725Z,48.24
2018-03-15T00:40:15.546Z,48.23
2018-03-15T00:40:37.617Z,48.23
2018-03-15T00:40:59.774Z,48.23
2018-03-15T00:41:21.846Z,48.23
2018-03-15T00:41:43.909Z,48.23
2018-03-15T00:42:05.951Z,48.24
2018-03-15T00:42:28.769Z,48.24
2018-03-15T00:42:50.858Z,48.23
2018-03-15T00:43:12.914Z,48.24
2018-03-15T00:43:36.122Z,48.23
2018-03-15T00:43:58.179Z,48.24
2018-03-15T00:44:21.003Z,48.24
2018-03-15T00:44:43.052Z,48.24
2018-03-15T00:45:05.104Z,48.23
2018-03-15T00:45:27.155Z,48.23
2018-03-15T00:45:49.976Z,48.24
2018-03-15T00:46:12.257Z,48.24
2018-03-15T00:46:34.287Z,48.23
2018-03-15T00:46:56.361Z,48.23
2018-03-15T00:47:19.186Z,48.23
2018-03-15T00:47:42.011Z,48.24
2018-03-15T00:48:04.073Z,48.25
2018-03-15T00:48:26.130Z,48.25
2018-03-15T00:48:48.242Z,48.24
2018-03-15T00:49:10.302Z,48.25
2018-03-15T00:49:33.121Z,48.25
2018-03-15T00:49:55.180Z,48.25
2018-03-15T00:50:17.238Z,48.25
2018-03-15T00:50:39.297Z,48.24
2018-03-15T00:51:01.362Z,48.24
2018-03-15T00:51:23.416Z,48.24
2018-03-15T00:51:46.246Z,48.24
2018-03-15T00:52:09.066Z,48.24
2018-03-15T00:52:31.114Z,48.24
2018-03-15T00:52:53.940Z,48.24
2018-03-15T00:53:16.769Z,48.24
2018-03-15T00:53:39.588Z,48.24
2018-03-15T00:54:01.682Z,48.24
2018-03-15T00:54:23.735Z,48.24
2018-03-15T00:54:45.784Z,48.25
2018-03-15T00:55:07.850Z,48.25
2018-03-15T00:55:29.896Z,48.25
2018-03-15T00:55:52.721Z,48.25
2018-03-15T00:56:14.777Z,48.24
2018-03-15T00:56:36.846Z,48.24
2018-03-15T00:56:58.901Z,48.25
2018-03-15T00:57:20.952Z,48.25
2018-03-15T00:57:43.012Z,48.25
2018-03-15T00:58:05.853Z,48.25
2018-03-15T00:58:28.678Z,48.25
2018-03-15T00:58:50.738Z,48.26
2018-03-15T00:59:12.842Z,48.26
2018-03-15T00:59:34.921Z,48.25
2018-03-15T00:59:56.972Z,48.26
2018-03-15T01:00:19.035Z,48.26
2018-03-15T01:00:41.112Z,48.25
2018-03-15T01:01:03.181Z,48.26
2018-03-15T01:01:25.227Z,48.26
2018-03-15T01:01:48.047Z,48.26
2018-03-15T01:02:10.869Z,48.25
2018-03-15T01:02:32.988Z,48.25
2018-03-15T01:02:55.059Z,48.25
2018-03-15T01:03:17.116Z,48.25
2018-03-15T01:03:39.189Z,48.25
2018-03-15T01:04:01.245Z,48.25
2018-03-15T01:04:23.292Z,48.25
2018-03-15T01:04:45.349Z,48.25
2018-03-15T01:05:07.403Z,48.25
2018-03-15T01:05:29.450Z,48.25
2018-03-15T01:05:52.284Z,48.25
2018-03-15T01:06:15.129Z,48.25
2018-03-15T01:06:38.133Z,48.26
2018-03-15T01:07:00.187Z,48.25
2018-03-15T01:07:22.980Z,48.26
2018-03-15T01:07:45.025Z,48.27
2018-03-15T01:08:07.835Z,48.26
2018-03-15T01:08:29.896Z,48.27
2018-03-15T01:08:51.952Z,48.28
2018-03-15T01:09:14.004Z,48.26
2018-03-15T01:09:36.085Z,48.26
2018-03-15T01:09:58.148Z,48.26
2018-03-15T01:10:20.960Z,48.26
2018-03-15T01:10:43.024Z,48.28
2018-03-15T01:11:05.068Z,48.27
2018-03-15T01:11:27.141Z,48.28
2018-03-15T01:11:49.961Z,48.28
2018-03-15T01:12:12.018Z,48.29
2018-03-15T01:12:34.110Z,48.27
2018-03-15T01:12:56.933Z,48.28
2018-03-15T01:13:19.744Z,48.27
2018-03-15T01:13:41.793Z,48.29
2018-03-15T01:14:04.670Z,48.29
2018-03-15T01:14:26.722Z,48.29
2018-03-15T01:14:49.122Z,48.29
2018-03-15T01:15:11.175Z,48.30
2018-03-15T01:15:33.247Z,48.29
2018-03-15T01:15:55.295Z,48.29
2018-03-15T01:16:17.353Z,48.30
2018-03-15T01:16:39.401Z,48.29
2018-03-15T01:17:01.452Z,48.26
2018-03-15T01:17:23.533Z,48.30
2018-03-15T01:17:45.586Z,48.31
2018-03-15T01:18:07.705Z,48.31
2018-03-15T01:18:29.748Z,48.31
2018-03-15T01:18:52.569Z,48.30
2018-03-15T01:19:15.384Z,48.30
2018-03-15T01:19:37.428Z,48.31
2018-03-15T01:20:00.281Z,48.31
2018-03-15T01:20:22.345Z,48.31
2018-03-15T01:20:44.401Z,48.31
2018-03-15T01:21:06.486Z,48.33
2018-03-15T01:21:28.537Z,48.29
2018-03-15T01:21:51.351Z,48.31
2018-03-15T01:22:13.397Z,48.31
2018-03-15T01:22:36.213Z,48.31
2018-03-15T01:22:58.321Z,48.31
2018-03-15T01:23:20.373Z,48.31
2018-03-15T01:23:42.437Z,48.31
2018-03-15T01:24:04.482Z,48.32
2018-03-15T01:24:26.546Z,48.32
2018-03-15T01:24:48.592Z,48.32
2018-03-15T01:25:10.674Z,48.32
2018-03-15T01:25:32.746Z,48.31
2018-03-15T01:25:54.793Z,48.32
2018-03-15T01:26:16.879Z,48.32
2018-03-15T01:26:38.939Z,48.32
2018-03-15T01:27:01.009Z,48.32
2018-03-15T01:27:23.057Z,48.32
2018-03-15T01:27:45.923Z,48.32
2018-03-15T01:28:08.080Z,48.32
2018-03-15T01:28:30.135Z,48.31
2018-03-15T01:28:52.382Z,48.32
2018-03-15T01:29:14.454Z,48.32
2018-03-15T01:29:37.265Z,48.32
2018-03-15T01:29:59.327Z,48.32
2018-03-15T01:30:21.685Z,48.32
2018-03-15T01:30:43.753Z,48.32
2018-03-15T01:31:06.577Z,48.32
2018-03-15T01:31:29.405Z,48.32
2018-03-15T01:31:51.454Z,48.33
2018-03-15T01:32:13.537Z,48.34
2018-03-15T01:32:35.669Z,48.34
2018-03-15T01:32:58.505Z,48.34
2018-03-15T01:33:20.570Z,48.34
2018-03-15T01:33:42.617Z,48.33
2018-03-15T01:34:04.674Z,48.34
2018-03-15T01:34:27.487Z,48.34
2018-03-15T01:34:49.542Z,48.34
2018-03-15T01:35:11.742Z,48.34
2018-03-15T01:35:34.577Z,48.34
2018-03-15T01:35:57.394Z,48.34
2018-03-15T01:36:19.469Z,48.34
2018-03-15T01:36:41.517Z,48.35
2018-03-15T01:37:03.585Z,48.36
2018-03-15T01:37:25.638Z,48.36
2018-03-15T01:37:47.789Z,48.36
2018-03-15T01:38:10.635Z,48.35
2018-03-15T01:38:33.469Z,48.35
2018-03-15T01:38:56.289Z,48.34
2018-03-15T01:39:18.562Z,48.35
2018-03-15T01:39:40.613Z,48.34
2018-03-15T01:40:02.661Z,48.35
2018-03-15T01:40:25.479Z,48.35
2018-03-15T01:40:47.564Z,48.36
2018-03-15T01:41:09.629Z,48.36
2018-03-15T01:41:32.465Z,48.36
2018-03-15T01:41:55.286Z,48.36
2018-03-15T01:42:17.340Z,48.36
2018-03-15T01:42:39.397Z,48.36
2018-03-15T01:43:01.529Z,48.36
2018-03-15T01:43:23.583Z,48.35
2018-03-15T01:43:45.830Z,48.35
2018-03-15T01:44:07.881Z,48.35
2018-03-15T01:44:29.941Z,48.35
2018-03-15T01:44:52.030Z,48.36
2018-03-15T01:45:14.108Z,48.36
2018-03-15T01:45:36.170Z,48.37
2018-03-15T01:45:58.993Z,48.36
2018-03-15T01:46:21.048Z,48.36
2018-03-15T01:46:43.096Z,48.37
2018-03-15T01:47:05.149Z,48.36
2018-03-15T01:47:27.220Z,48.36
2018-03-15T01:47:49.269Z,48.35
2018-03-15T01:48:11.325Z,48.36
2018-03-15T01:48:33.376Z,48.36
2018-03-15T01:48:55.433Z,48.35
2018-03-15T01:49:17.521Z,48.35
2018-03-15T01:49:40.340Z,48.34
2018-03-15T01:50:02.413Z,48.35
2018-03-15T01:50:25.227Z,48.35
2018-03-15T01:50:48.224Z,48.35
2018-03-15T01:51:10.331Z,48.35
2018-03-15T01:51:32.391Z,48.35
2018-03-15T01:51:54.440Z,48.36
2018-03-15T01:52:17.252Z,48.33
2018-03-15T01:52:39.319Z,48.34
2018-03-15T01:53:01.399Z,48.35
2018-03-15T01:53:23.452Z,48.35
2018-03-15T01:53:45.499Z,48.35
2018-03-15T01:54:07.540Z,48.33
2018-03-15T01:54:29.604Z,48.34
2018-03-15T01:54:51.687Z,48.35
2018-03-15T01:55:13.741Z,48.35
2018-03-15T01:55:35.795Z,48.35
2018-03-15T01:55:57.862Z,48.36
2018-03-15T01:56:19.902Z,48.35
2018-03-15T01:56:41.976Z,48.36
2018-03-15T01:57:04.816Z,48.36
2018-03-15T01:57:27.632Z,48.35
2018-03-15T01:57:49.686Z,48.36
2018-03-15T01:58:11.743Z,48.36
2018-03-15T01:58:33.780Z,48.36
2018-03-15T01:58:55.837Z,48.36
2018-03-15T01:59:17.905Z,48.35
2018-03-15T01:59:39.961Z,48.35
2018-03-15T02:00:02.790Z,48.35
2018-03-15T02:00:25.647Z,48.35
2018-03-15T02:00:47.720Z,48.35
2018-03-15T02:01:09.776Z,48.35
2018-03-15T02:01:31.862Z,48.35
2018-03-15T02:01:53.922Z,48.35
2018-03-15T02:02:15.987Z,48.36
2018-03-15T02:02:38.017Z,48.36
2018-03-15T02:03:00.051Z,48.35
2018-03-15T02:03:22.859Z,48.35
2018-03-15T02:03:44.993Z,48.35
2018-03-15T02:04:07.874Z,48.35
2018-03-15T02:04:29.930Z,48.35
2018-03-15T02:04:51.982Z,48.34
2018-03-15T02:05:14.796Z,48.33
2018-03-15T02:05:36.841Z,48.35
2018-03-15T02:05:58.892Z,48.35
2018-03-15T02:06:21.052Z,48.35
2018-03-15T02:06:43.897Z,48.35
2018-03-15T02:07:06.729Z,48.34
2018-03-15T02:07:29.565Z,48.34
2018-03-15T02:07:52.390Z,48.33
2018-03-15T02:08:14.516Z,48.36
2018-03-15T02:08:37.327Z,48.34
2018-03-15T02:08:59.380Z,48.34
2018-03-15T02:09:22.193Z,48.34
2018-03-15T02:09:44.242Z,48.33
2018-03-15T02:10:06.297Z,48.33
2018-03-15T02:10:28.355Z,48.33
2018-03-15T02:10:51.177Z,48.33
2018-03-15T02:11:13.234Z,48.33
2018-03-15T02:11:35.281Z,48.33
2018-03-15T02:11:57.434Z,48.33
2018-03-15T02:12:19.497Z,48.33
2018-03-15T02:12:41.562Z,48.32
2018-03-15T02:13:03.612Z,48.33
2018-03-15T02:13:26.431Z,48.33
2018-03-15T02:13:49.252Z,48.34
2018-03-15T02:14:11.326Z,48.33
2018-03-15T02:14:33.372Z,48.33
2018-03-15T02:14:55.416Z,48.33
2018-03-15T02:15:18.245Z,48.31
2018-03-15T02:15:41.064Z,48.33
2018-03-15T02:16:03.122Z,48.35
2018-03-15T02:16:25.183Z,48.35
2018-03-15T02:16:47.235Z,48.35
2018-03-15T02:17:10.092Z,48.33
2018-03-15T02:17:32.158Z,48.33
2018-03-15T02:17:54.226Z,48.34
2018-03-15T02:18:16.317Z,48.33
2018-03-15T02:18:38.363Z,48.33
2018-03-15T02:19:00.425Z,48.31
2018-03-15T02:19:22.533Z,48.31
2018-03-15T02:19:44.587Z,48.31
2018-03-15T02:20:06.617Z,48.33
2018-03-15T02:20:29.500Z,48.33
2018-03-15T02:20:51.554Z,48.32
2018-03-15T02:21:13.677Z,48.32
2018-03-15T02:21:35.733Z,48.29
2018-03-15T02:21:57.821Z,48.29
2018-03-15T02:22:19.894Z,48.30
2018-03-15T02:22:41.954Z,48.30
2018-03-15T02:23:04.784Z,48.29
2018-03-15T02:23:26.843Z,48.30
2018-03-15T02:23:48.896Z,48.29
2018-03-15T02:24:10.940Z,48.29
2018-03-15T02:24:33.760Z,48.28
2018-03-15T02:24:55.821Z,48.27
2018-03-15T02:25:17.886Z,48.27
2018-03-15T02:25:40.005Z,48.28
2018-03-15T02:26:02.077Z,48.27
2018-03-15T02:26:24.123Z,48.27
2018-03-15T02:26:46.189Z,48.26
2018-03-15T02:27:09.006Z,48.26
2018-03-15T02:27:31.355Z,48.26
2018-03-15T02:27:53.413Z,48.25
2018-03-15T02:28:15.458Z,48.25
2018-03-15T02:28:37.509Z,48.26
2018-03-15T02:28:59.568Z,48.26
2018-03-15T02:29:21.612Z,48.26
2018-03-15T02:29:43.676Z,48.25
2018-03-15T02:30:05.758Z,48.26
2018-03-15T02:30:28.599Z,48.27
2018-03-15T02:30:51.423Z,48.27
2018-03-15T02:31:14.251Z,48.28
2018-03-15T02:31:36.313Z,48.27
2018-03-15T02:31:58.386Z,48.27
2018-03-15T02:32:20.444Z,48.26
2018-03-15T02:32:42.532Z,48.26
2018-03-15T02:33:05.325Z,48.27
2018-03-15T02:33:27.372Z,48.27
2018-03-15T02:33:49.458Z,48.28
2018-03-15T02:34:11.504Z,48.28
2018-03-15T02:34:33.554Z,48.27
2018-03-15T02:34:55.616Z,48.27
2018-03-15T02:35:17.661Z,48.27
2018-03-15T02:35:39.714Z,48.27
2018-03-15T02:36:01.776Z,48.26
2018-03-15T02:36:24.596Z,48.26
2018-03-15T02:36:46.649Z,48.25
2018-03-15T02:37:08.702Z,48.25
2018-03-15T02:37:30.748Z,48.25
2018-03-15T02:37:52.833Z,48.26
2018-03-15T02:38:14.890Z,48.25
2018-03-15T02:38:36.944Z,48.25
2018-03-15T02:38:59.769Z,48.25
2018-03-15T02:39:21.804Z,48.23
2018-03-15T02:39:43.861Z,48.24
2018-03-15T02:40:05.928Z,48.24
2018-03-15T02:40:28.747Z,48.24
2018-03-15T02:40:50.809Z,48.25
2018-03-15T02:41:12.866Z,48.25
2018-03-15T02:41:34.925Z,48.25
2018-03-15T02:41:57.743Z,48.25
2018-03-15T02:42:19.796Z,48.24
2018-03-15T02:42:41.860Z,48.26
2018-03-15T02:43:04.254Z,48.25
2018-03-15T02:43:26.315Z,48.23
2018-03-15T02:43:48.460Z,48.22
2018-03-15T02:44:11.277Z,48.22
2018-03-15T02:44:34.186Z,48.24
2018-03-15T02:44:56.253Z,48.23
2018-03-15T02:45:18.311Z,48.23
2018-03-15T02:45:40.383Z,48.23
2018-03-15T02:46:02.446Z,48.23
2018-03-15T02:46:24.523Z,48.23
2018-03-15T02:46:46.591Z,48.20
2018-03-15T02:47:08.632Z,48.20
2018-03-15T02:47:30.684Z,48.21
2018-03-15T02:47:52.746Z,48.20
2018-03-15T02:48:14.819Z,48.20
2018-03-15T02:48:36.865Z,48.22
2018-03-15T02:48:58.938Z,48.21
2018-03-15T02:49:21.762Z,48.20
2018-03-15T02:49:44.583Z,48.22
2018-03-15T02:50:06.631Z,48.22
2018-03-15T02:50:28.694Z,48.21
2018-03-15T02:50:50.763Z,48.19
2018-03-15T02:51:12.819Z,48.20
2018-03-15T02:51:34.886Z,48.20
2018-03-15T02:51:57.701Z,48.19
2018-03-15T02:52:19.754Z,48.18
2018-03-15T02:52:41.817Z,48.18
2018-03-15T02:53:03.932Z,48.17
2018-03-15T02:53:26.011Z,48.17
2018-03-15T02:53:48.074Z,48.18
2018-03-15T02:54:10.123Z,48.17
2018-03-15T02:54:32.969Z,48.16
2018-03-15T02:54:55.041Z,48.17
2018-03-15T02:55:17.123Z,48.17
2018-03-15T02:55:39.172Z,48.17
2018-03-15T02:56:01.238Z,48.15
2018-03-15T02:56:23.292Z,48.16
2018-03-15T02:56:45.383Z,48.15
2018-03-15T02:57:07.433Z,48.16
2018-03-15T02:57:29.486Z,48.16
2018-03-15T02:57:51.553Z,48.15
2018-03-15T02:58:13.610Z,48.14
2018-03-15T02:58:35.701Z,48.14
2018-03-15T02:58:57.778Z,48.14
2018-03-15T02:59:19.836Z,48.15
2018-03-15T02:59:41.899Z,48.15
2018-03-15T03:00:04.726Z,48.15
2018-03-15T03:00:26.795Z,48.15
2018-03-15T03:00:48.859Z,48.15
2018-03-15T03:01:10.919Z,48.15
2018-03-15T03:01:32.965Z,48.14
2018-03-15T03:01:55.022Z,48.14
2018-03-15T03:02:17.846Z,48.14
2018-03-15T03:02:39.998Z,48.14
2018-03-15T03:03:02.066Z,48.15
2018-03-15T03:03:24.121Z,48.16
2018-03-15T03:03:46.949Z,48.16
2018-03-15T03:04:09.776Z,48.16
2018-03-15T03:04:32.571Z,48.15
2018-03-15T03:04:54.617Z,48.14
2018-03-15T03:05:16.675Z,48.14
2018-03-15T03:05:38.739Z,48.15
2018-03-15T03:06:00.783Z,48.12
2018-03-15T03:06:23.600Z,48.13
2018-03-15T03:06:45.657Z,48.12
2018-03-15T03:07:07.716Z,48.12
2018-03-15T03:07:29.782Z,48.12
2018-03-15T03:07:51.893Z,48.12
2018-03-15T03:08:14.712Z,48.11
2018-03-15T03:08:36.780Z,48.12
2018-03-15T03:08:58.865Z,48.11
2018-03-15T03:09:21.683Z,48.13
2018-03-15T03:09:43.742Z,48.13
2018-03-15T03:10:05.796Z,48.13
2018-03-15T03:10:27.876Z,48.12
2018-03-15T03:10:49.925Z,48.12
2018-03-15T03:11:11.989Z,48.12
2018-03-15T03:11:34.823Z,48.11
2018-03-15T03:11:56.885Z,48.12
2018-03-15T03:12:18.942Z,48.11
2018-03-15T03:12:41.006Z,48.12
2018-03-15T03:13:03.072Z,48.10
2018-03-15T03:13:25.124Z,48.10
2018-03-15T03:13:47.173Z,48.11
2018-03-15T03:14:09.260Z,48.09
2018-03-15T03:14:31.312Z,48.09
2018-03-15T03:14:53.369Z,48.08
2018-03-15T03:15:16.184Z,48.08
2018-03-15T03:15:38.244Z,48.08
2018-03-15T03:16:00.287Z,48.07
2018-03-15T03:16:22.330Z,48.07
2018-03-15T03:16:44.430Z,48.07
2018-03-15T03:17:06.486Z,48.07
2018-03-15T03:17:29.302Z,48.08
2018-03-15T03:17:51.344Z,48.07
2018-03-15T03:18:14.200Z,48.06
2018-03-15T03:18:36.245Z,48.06
2018-03-15T03:18:58.301Z,48.06
2018-03-15T03:19:20.433Z,48.06
2018-03-15T03:19:43.258Z,48.06
2018-03-15T03:20:06.106Z,48.06
2018-03-15T03:20:28.928Z,48.06
2018-03-15T03:20:50.984Z,48.07
2018-03-15T03:21:13.061Z,48.06
2018-03-15T03:21:35.894Z,48.05
2018-03-15T03:21:57.945Z,48.06
2018-03-15T03:22:20.017Z,48.06
2018-03-15T03:22:42.070Z,48.06
2018-03-15T03:23:04.148Z,48.05
2018-03-15T03:23:26.204Z,48.05
2018-03-15T03:23:49.017Z,48.05
2018-03-15T03:24:11.066Z,48.05
2018-03-15T03:24:33.160Z,48.06
2018-03-15T03:24:55.982Z,48.05
2018-03-15T03:25:18.034Z,48.03
2018-03-15T03:25:40.080Z,48.03
2018-03-15T03:26:02.158Z,48.03
2018-03-15T03:26:24.243Z,48.01
2018-03-15T03:26:46.295Z,48.02
2018-03-15T03:27:09.100Z,48.03
2018-03-15T03:27:31.155Z,48.01
2018-03-15T03:27:53.210Z,48.02
2018-03-15T03:28:15.297Z,48.02
2018-03-15T03:28:37.432Z,48.03
2018-03-15T03:28:59.485Z,48.01
2018-03-15T03:29:21.545Z,48.01
2018-03-15T03:29:43.632Z,48.00
2018-03-15T03:30:06.454Z,48.00
2018-03-15T03:30:28.517Z,47.99
2018-03-15T03:30:50.568Z,48.00
2018-03-15T03:31:12.630Z,47.99
2018-03-15T03:31:35.452Z,47.99
2018-03-15T03:31:58.272Z,48.01
2018-03-15T03:32:20.337Z,48.01
2018-03-15T03:32:42.387Z,48.01
2018-03-15T03:33:04.432Z,48.01
2018-03-15T03:33:26.493Z,48.01
2018-03-15T03:33:48.549Z,48.01
2018-03-15T03:34:10.602Z,48.01
2018-03-15T03:34:33.424Z,48.01
2018-03-15T03:34:55.509Z,48.01
2018-03-15T03:35:17.565Z,48.01
2018-03-15T03:35:40.391Z,48.01
2018-03-15T03:36:02.456Z,47.97
2018-03-15T03:36:24.505Z,47.99
2018-03-15T03:36:47.318Z,48.00
2018-03-15T03:37:09.379Z,48.00
2018-03-15T03:37:31.433Z,48.00
2018-03-15T03:37:53.486Z,47.99
2018-03-15T03:38:15.550Z,47.97
2018-03-15T03:38:38.376Z,47.99
2018-03-15T03:39:01.215Z,47.98
2018-03-15T03:39:24.030Z,47.97
2018-03-15T03:39:46.106Z,47.96
2018-03-15T03:40:08.522Z,47.99
2018-03-15T03:40:30.572Z,47.98
2018-03-15T03:40:52.637Z,47.96
2018-03-15T03:41:14.700Z,47.95
2018-03-15T03:41:36.743Z,47.94
2018-03-15T03:41:58.795Z,47.93
2018-03-15T03:42:20.850Z,47.93
2018-03-15T03:42:42.912Z,47.93
2018-03-15T03:43:05.731Z,47.94
2018-03-15T03:43:27.781Z,47.94
2018-03-15T03:43:49.841Z,47.93
2018-03-15T03:44:11.885Z,47.94
2018-03-15T03:44:33.938Z,47.93
2018-03-15T03:44:56.000Z,47.94
2018-03-15T03:45:18.088Z,47.94
2018-03-15T03:45:40.140Z,47.93
2018-03-15T03:46:02.213Z,47.94
2018-03-15T03:46:24.293Z,47.94
2018-03-15T03:46:46.341Z,47.95
2018-03-15T03:47:08.410Z,47.94
2018-03-15T03:47:31.253Z,47.92
2018-03-15T03:47:53.313Z,47.92
2018-03-15T03:48:15.364Z,47.91
2018-03-15T03:48:37.416Z,47.91
2018-03-15T03:49:00.241Z,47.92
2018-03-15T03:49:22.293Z,47.92
2018-03-15T03:49:44.351Z,47.92
2018-03-15T03:50:06.415Z,47.90
2018-03-15T03:50:28.779Z,47.90
2018-03-15T03:50:50.822Z,47.89
2018-03-15T03:51:12.883Z,47.89
2018-03-15T03:51:34.941Z,47.89
2018-03-15T03:51:56.998Z,47.88
2018-03-15T03:52:19.826Z,47.88
2018-03-15T03:52:41.892Z,47.88
2018-03-15T03:53:03.936Z,47.88
2018-03-15T03:53:25.989Z,47.87
2018-03-15T03:53:48.819Z,47.88
2018-03-15T03:54:11.643Z,47.88
2018-03-15T03:54:33.722Z,47.88
2018-03-15T03:54:55.782Z,47.89
2018-03-15T03:55:17.834Z,47.88
2018-03-15T03:55:39.893Z,47.88
2018-03-15T03:56:01.956Z,47.87
2018-03-15T03:56:24.167Z,47.87
2018-03-15T03:56:46.983Z,47.88
2018-03-15T03:57:09.037Z,47.87
2018-03-15T03:57:31.084Z,47.88
2018-03-15T03:57:53.141Z,47.88
2018-03-15T03:58:15.974Z,47.89
2018-03-15T03:58:38.034Z,47.89
2018-03-15T03:59:00.100Z,47.88
2018-03-15T03:59:22.151Z,47.88
2018-03-15T03:59:44.210Z,47.87
2018-03-15T04:00:06.298Z,47.87
2018-03-15T04:00:28.354Z,47.85
2018-03-15T04:00:50.458Z,47.87
2018-03-15T04:01:12.573Z,47.87
2018-03-15T04:01:34.601Z,47.87
2018-03-15T04:01:56.650Z,47.88
2018-03-15T04:02:18.729Z,47.89
2018-03-15T04:02:40.779Z,47.89
2018-03-15T04:03:02.838Z,47.91
2018-03-15T04:03:24.930Z,47.88
2018-03-15T04:03:46.970Z,47.88
2018-03-15T04:04:09.048Z,47.88
2018-03-15T04:04:31.122Z,47.87
2018-03-15T04:04:53.177Z,47.86
2018-03-15T04:05:15.236Z,47.85
2018-03-15T04:05:37.289Z,47.84
2018-03-15T04:05:59.373Z,47.84
2018-03-15T04:06:21.421Z,47.82
2018-03-15T04:06:43.477Z,47.82
2018-03-15T04:07:06.287Z,47.83
2018-03-15T04:07:28.347Z,47.82
2018-03-15T04:07:50.398Z,47.83
2018-03-15T04:08:12.444Z,47.84
2018-03-15T04:08:34.533Z,47.85
2018-03-15T04:08:56.590Z,47.85
2018-03-15T04:09:18.649Z,47.85
2018-03-15T04:09:40.694Z,47.85
2018-03-15T04:10:02.743Z,47.84
2018-03-15T04:10:25.564Z,47.84
2018-03-15T04:10:47.616Z,47.83
2018-03-15T04:11:10.440Z,47.84
2018-03-15T04:11:33.248Z,47.82
2018-03-15T04:11:55.296Z,47.81
2018-03-15T04:12:18.117Z,47.81
2018-03-15T04:12:40.194Z,47.81
2018-03-15T04:13:02.262Z,47.81
2018-03-15T04:13:25.073Z,47.80
2018-03-15T04:13:47.128Z,47.82
2018-03-15T04:14:09.961Z,47.80
2018-03-15T04:14:32.777Z,47.79
2018-03-15T04:14:54.834Z,47.79
2018-03-15T04:15:16.894Z,47.80
2018-03-15T04:15:38.966Z,47.79
2018-03-15T04:16:01.073Z,47.79
2018-03-15T04:16:23.136Z,47.78
2018-03-15T04:16:45.195Z,47.78
2018-03-15T04:17:08.000Z,47.78
2018-03-15T04:17:30.060Z,47.78
2018-03-15T04:17:52.105Z,47.78
2018-03-15T04:18:14.148Z,47.77
2018-03-15T04:18:36.199Z,47.76
2018-03-15T04:18:59.009Z,47.78
2018-03-15T04:19:21.068Z,47.76
2018-03-15T04:19:43.125Z,47.75
2018-03-15T04:20:05.180Z,47.75
2018-03-15T04:20:27.993Z,47.75
2018-03-15T04:20:50.050Z,47.77
2018-03-15T04:21:12.543Z,47.74
2018-03-15T04:21:34.553Z,47.78
2018-03-15T04:21:56.606Z,47.73
2018-03-15T04:22:18.674Z,47.73
2018-03-15T04:22:40.721Z,47.71
2018-03-15T04:23:03.545Z,47.71
2018-03-15T04:23:27.104Z,47.72
2018-03-15T04:23:49.144Z,47.72
2018-03-15T04:24:11.198Z,47.71
2018-03-15T04:24:33.250Z,47.70
2018-03-15T04:24:55.355Z,47.72
2018-03-15T04:25:17.399Z,47.70
2018-03-15T04:25:40.230Z,47.71
2018-03-15T04:26:03.058Z,47.70
2018-03-15T04:26:25.114Z,47.69
2018-03-15T04:26:47.133Z,47.71
2018-03-15T04:27:09.186Z,47.71
2018-03-15T04:27:31.249Z,47.70
2018-03-15T04:27:53.305Z,47.71
2018-03-15T04:28:15.368Z,47.70
2018-03-15T04:28:38.194Z,47.70
2018-03-15T04:29:01.021Z,47.71
2018-03-15T04:29:23.068Z,47.71
2018-03-15T04:29:45.892Z,47.70
2018-03-15T04:30:08.726Z,47.71
2018-03-15T04:30:30.794Z,47.71
2018-03-15T04:30:52.847Z,47.70
2018-03-15T04:31:14.893Z,47.71
2018-03-15T04:31:37.328Z,47.70
2018-03-15T04:31:59.371Z,47.71
2018-03-15T04:32:21.414Z,47.72
2018-03-15T04:32:43.476Z,47.73
2018-03-15T04:33:05.511Z,47.71
2018-03-15T04:33:27.572Z,47.72
2018-03-15T04:33:49.625Z,47.71
2018-03-15T04:34:11.678Z,47.72
2018-03-15T04:34:33.743Z,47.71
2018-03-15T04:34:56.710Z,47.70
2018-03-15T04:35:18.794Z,47.71
2018-03-15T04:35:41.621Z,47.71
2018-03-15T04:36:03.758Z,47.72
2018-03-15T04:36:26.575Z,47.72
2018-03-15T04:36:48.945Z,47.73
2018-03-15T04:37:11.003Z,47.73
2018-03-15T04:37:33.061Z,47.74
2018-03-15T04:37:55.111Z,47.74
2018-03-15T04:38:17.158Z,47.74
2018-03-15T04:38:40.718Z,47.74
2018-03-15T04:39:02.770Z,47.75
2018-03-15T04:39:24.828Z,47.74
2018-03-15T04:39:46.893Z,47.74
2018-03-15T04:40:08.954Z,47.74
2018-03-15T04:40:31.005Z,47.73
2018-03-15T04:40:53.087Z,47.75
2018-03-15T04:41:15.136Z,47.74
2018-03-15T04:41:37.203Z,47.75
2018-03-15T04:41:59.292Z,47.72
2018-03-15T04:42:22.149Z,47.72
2018-03-15T04:42:44.197Z,47.72
2018-03-15T04:43:06.269Z,47.73
2018-03-15T04:43:28.328Z,47.73
2018-03-15T04:43:50.390Z,47.74
2018-03-15T04:44:13.209Z,47.75
2018-03-15T04:44:35.256Z,47.75
2018-03-15T04:44:58.072Z,47.75
2018-03-15T04:45:20.901Z,47.74
2018-03-15T04:45:42.957Z,47.75
2018-03-15T04:46:05.020Z,47.75
2018-03-15T04:46:27.069Z,47.75
2018-03-15T04:46:49.887Z,47.73